Time;durP1;ratioP1;P1;durP2;ratioP2;P2;SDS_P1;SDS_P2;PMS_P1;PMS_P2;Temp;Humidity;BMP_temperature;BMP_pressure;BME280_temperature;BME280_humidity;BME280_pressure;Samples;Min_cycle;Max_cycle;Signal;HPM_P1;HPM_P2
2021/08/02 00:00:55;;;;;;;9.90;6.80;;;;;;;26.12;100.00;100801.94;5008431;28;20417;-72
2021/08/02 00:04:21;;;;;;;10.50;6.63;;;;;;;26.10;100.00;100808.56;5007976;28;20445;-71
2021/08/02 00:07:11;;;;;;;;;;;;;;;;;;;;;
2021/08/02 00:09:40;;;;;;;10.00;6.60;;;;;;;26.01;100.00;100794.47;4997099;28;20437;-75
2021/08/02 00:12:09;;;;;;;9.93;6.47;;;;;;;26.07;100.00;100790.09;4971400;28;20474;-72
2021/08/02 00:14:35;;;;;;;10.83;7.90;;;;;;;26.02;100.00;100790.72;5008442;28;20483;-74
2021/08/02 00:17:01;;;;;;;8.73;6.50;;;;;;;25.99;100.00;100786.56;5008587;28;20435;-77
2021/08/02 00:19:27;;;;;;;15.47;7.47;;;;;;;25.97;100.00;100785.09;5011861;28;20444;-78
2021/08/02 00:21:54;;;;;;;8.60;6.30;;;;;;;25.98;100.00;100792.16;5015670;28;21259;-79
2021/08/02 00:24:21;;;;;;;7.90;6.27;;;;;;;25.92;100.00;100791.13;5008787;28;20405;-78
2021/08/02 00:26:48;;;;;;;11.00;7.47;;;;;;;25.86;100.00;100791.91;5008230;28;20864;-78
2021/08/02 00:29:15;;;;;;;11.10;7.43;;;;;;;25.88;100.00;100792.53;5008399;28;20421;-72
2021/08/02 00:31:41;;;;;;;11.60;6.77;;;;;;;25.83;100.00;100789.59;5007999;28;20453;-72
2021/08/02 00:34:06;;;;;;;9.27;6.47;;;;;;;25.80;100.00;100791.88;5008418;28;20413;-72
2021/08/02 00:36:40;;;;;;;10.20;5.90;;;;;;;25.76;100.00;100796.00;5007816;28;20499;-72
2021/08/02 00:39:38;;;;;;;12.20;7.07;;;;;;;25.81;100.00;100789.00;5007251;28;20859;-72
2021/08/02 00:42:32;;;;;;;9.83;7.43;;;;;;;25.78;100.00;100794.78;5002135;28;20437;-73
2021/08/02 00:45:04;;;;;;;12.03;7.73;;;;;;;25.81;100.00;100788.16;5008327;28;20504;-72
2021/08/02 00:47:47;;;;;;;22.27;7.60;;;;;;;25.78;100.00;100791.25;5009567;28;20780;-72
2021/08/02 00:50:35;;;;;;;10.93;6.30;;;;;;;25.76;100.00;100787.91;5008051;28;20491;-77
2021/08/02 00:53:05;;;;;;;10.03;6.63;;;;;;;25.76;100.00;100774.47;5011926;28;20415;-74
2021/08/02 00:55:34;;;;;;;13.47;7.23;;;;;;;25.77;100.00;100778.81;5014107;28;20467;-75
2021/08/02 00:58:03;;;;;;;14.73;7.67;;;;;;;25.77;100.00;100781.50;5038040;28;20934;-73
2021/08/02 01:00:29;;;;;;;12.40;6.50;;;;;;;25.81;100.00;100777.38;5013506;28;20486;-72
2021/08/02 01:02:55;;;;;;;9.27;6.77;;;;;;;25.81;100.00;100774.69;5012328;28;20921;-72
2021/08/02 01:05:21;;;;;;;8.73;6.47;;;;;;;25.80;100.00;100773.88;5014346;28;20166;-72
2021/08/02 01:07:54;;;;;;;12.43;7.10;;;;;;;25.83;100.00;100767.25;5013890;28;20475;-72
2021/08/02 01:10:20;;;;;;;11.17;8.00;;;;;;;25.78;100.00;100773.25;5013167;28;20451;-71
2021/08/02 01:12:49;;;;;;;10.77;7.07;;;;;;;25.80;100.00;100773.88;5000277;28;20412;-73
2021/08/02 01:15:17;;;;;;;8.73;7.03;;;;;;;25.71;100.00;100770.53;5013562;28;20849;-75
2021/08/02 01:17:45;;;;;;;14.70;6.90;;;;;;;25.69;100.00;100772.56;5010850;28;20413;-70
2021/08/02 01:20:11;;;;;;;8.80;6.87;;;;;;;25.67;100.00;100771.09;5003787;28;20424;-70
2021/08/02 01:22:39;;;;;;;8.47;6.47;;;;;;;25.65;100.00;100771.28;5012692;28;20456;-78
2021/08/02 01:25:38;;;;;;;10.67;6.93;;;;;;;25.64;100.00;100771.50;5012760;28;20922;-71
2021/08/02 01:28:12;;;;;;;8.43;6.83;;;;;;;25.67;100.00;100771.91;5012155;28;20409;-72
2021/08/02 01:30:39;;;;;;;13.13;6.93;;;;;;;25.66;100.00;100772.13;5011984;28;20448;-71
2021/08/02 01:33:04;;;;;;;8.83;6.97;;;;;;;25.64;100.00;100779.56;5012925;28;20509;-73
2021/08/02 01:35:30;;;;;;;10.80;6.70;;;;;;;25.64;100.00;100776.88;5013515;28;20949;-72
2021/08/02 01:37:56;;;;;;;9.27;6.30;;;;;;;25.64;100.00;100783.09;5013564;28;20221;-71
2021/08/02 01:40:22;;;;;;;9.10;6.67;;;;;;;25.66;100.00;100772.94;4994316;28;20570;-72
2021/08/02 01:42:48;;;;;;;13.80;6.30;;;;;;;25.64;100.00;100783.09;5005473;28;20401;-72
2021/08/02 01:45:14;;;;;;;10.30;6.97;;;;;;;25.63;100.00;100781.44;4996236;28;20543;-71
2021/08/02 01:47:45;;;;;;;11.43;6.50;;;;;;;25.67;100.00;100782.69;4993223;28;20607;-71
2021/08/02 01:50:36;;;;;;;10.90;7.20;;;;;;;25.62;100.00;100774.41;4997709;28;20540;-71
2021/08/02 01:53:15;;;;;;;7.40;6.07;;;;;;;25.64;100.00;100771.50;5011689;28;20468;-72
2021/08/02 01:55:45;;;;;;;10.00;6.37;;;;;;;25.63;100.00;100770.66;5007552;28;20531;-75
2021/08/02 01:58:11;;;;;;;8.93;6.40;;;;;;;25.62;100.00;100760.94;5011990;28;20397;-72
2021/08/02 02:00:42;;;;;;;11.20;6.70;;;;;;;25.64;100.00;100766.94;4998336;28;20445;-71
2021/08/02 02:03:21;;;;;;;9.73;7.73;;;;;;;25.61;100.00;100780.78;4992468;28;20414;-71
2021/08/02 02:06:11;;;;;;;9.50;6.70;;;;;;;25.64;100.00;100779.56;4995692;28;20406;-71
2021/08/02 02:08:41;;;;;;;10.20;6.70;;;;;;;25.64;100.00;100776.88;4993841;28;20428;-71
2021/08/02 02:11:09;;;;;;;11.97;7.03;;;;;;;25.66;100.00;100775.63;5004164;28;20970;-71
2021/08/02 02:13:38;;;;;;;12.60;7.10;;;;;;;25.64;100.00;100785.78;5002271;28;20801;-73
2021/08/02 02:16:06;;;;;;;11.87;7.10;;;;;;;25.66;100.00;100788.28;5006147;28;20807;-72
2021/08/02 02:18:34;;;;;;;9.77;6.10;;;;;;;25.63;100.00;100789.50;5002486;28;20421;-71
2021/08/02 02:21:02;;;;;;;11.37;7.33;;;;;;;25.69;100.00;100790.53;5002729;28;20409;-71
2021/08/02 02:23:29;;;;;;;15.67;7.90;;;;;;;25.63;100.00;100792.19;5000409;28;20406;-72
2021/08/02 02:25:55;;;;;;;11.43;7.37;;;;;;;25.65;100.00;100794.69;5005193;28;20418;-72
2021/08/02 02:28:21;;;;;;;14.60;7.10;;;;;;;25.62;100.00;100793.25;5001582;28;20492;-72
2021/08/02 02:30:48;;;;;;;12.07;6.67;;;;;;;25.66;100.00;100790.97;5001666;28;20465;-75
2021/08/02 02:33:16;;;;;;;8.37;6.23;;;;;;;25.64;100.00;100793.03;4994587;28;20174;-76
2021/08/02 02:35:44;;;;;;;12.80;7.73;;;;;;;25.62;100.00;100801.31;5013368;28;20832;-75
2021/08/02 02:38:11;;;;;;;8.70;7.23;;;;;;;25.60;100.00;100800.66;5003941;28;20491;-72
2021/08/02 02:40:43;;;;;;;10.73;6.47;;;;;;;25.58;100.00;100800.03;5010217;28;20479;-73
2021/08/02 02:43:11;;;;;;;9.20;6.90;;;;;;;25.61;100.00;100796.94;5010933;28;20393;-73
2021/08/02 02:45:37;;;;;;;12.97;7.70;;;;;;;25.59;100.00;100807.06;5010627;28;20429;-73
2021/08/02 02:48:05;;;;;;;9.73;6.40;;;;;;;25.58;100.00;100816.19;5010782;28;20405;-74
2021/08/02 02:50:31;;;;;;;7.10;5.63;;;;;;;25.58;100.00;100805.41;5010088;28;20457;-74
2021/08/02 02:52:59;;;;;;;11.03;6.70;;;;;;;25.54;100.00;100809.53;5009755;28;20425;-72
2021/08/02 02:55:26;;;;;;;8.53;7.63;;;;;;;25.56;100.00;100801.28;5011606;28;20429;-72
2021/08/02 02:57:52;;;;;;;9.57;7.43;;;;;;;25.57;100.00;100806.44;5012300;28;20427;-72
2021/08/02 03:00:19;;;;;;;12.90;7.23;;;;;;;25.59;100.00;100801.69;5009964;28;20444;-72
2021/08/02 03:02:48;;;;;;;10.80;6.70;;;;;;;25.61;100.00;100807.69;5011679;28;20925;-74
2021/08/02 03:05:13;;;;;;;14.50;7.50;;;;;;;25.59;100.00;100811.63;5011794;28;20445;-72
2021/08/02 03:07:40;;;;;;;12.97;6.80;;;;;;;25.60;100.00;100807.91;5007716;28;20440;-71
2021/08/02 03:10:07;;;;;;;9.97;6.33;;;;;;;25.59;100.00;100809.75;5011072;28;20428;-72
2021/08/02 03:12:34;;;;;;;12.83;7.73;;;;;;;25.59;100.00;100809.75;5011265;28;20428;-71
2021/08/02 03:15:01;;;;;;;15.30;8.40;;;;;;;25.61;100.00;100810.38;5011043;28;20413;-73
2021/08/02 03:17:27;;;;;;;16.67;6.43;;;;;;;25.65;100.00;100808.97;5011845;28;20393;-72
2021/08/02 03:19:52;;;;;;;14.10;6.50;;;;;;;25.62;100.00;100800.47;5010787;28;20431;-72
2021/08/02 03:22:29;;;;;;;12.97;6.93;;;;;;;25.64;100.00;100798.41;5010589;28;20170;-73
2021/08/02 03:25:25;;;;;;;11.80;5.97;;;;;;;25.63;100.00;100808.34;5011216;28;20170;-73
2021/08/02 03:27:53;;;;;;;14.03;7.70;;;;;;;25.68;100.00;100813.13;5003942;28;20425;-73
2021/08/02 03:30:19;;;;;;;14.00;6.80;;;;;;;25.70;100.00;100814.59;5011151;28;20808;-74
2021/08/02 03:32:46;;;;;;;8.40;6.40;;;;;;;25.73;100.00;100821.47;5011904;28;20393;-76
2021/08/02 03:35:14;;;;;;;12.20;6.73;;;;;;;25.76;100.00;100812.97;5002642;28;20508;-73
2021/08/02 03:37:42;;;;;;;9.90;6.40;;;;;;;25.80;100.00;100818.81;5011008;28;20457;-72
2021/08/02 03:40:12;;;;;;;10.17;6.93;;;;;;;25.83;100.00;100815.69;5010663;28;20413;-73
2021/08/02 03:42:39;;;;;;;11.80;7.37;;;;;;;25.85;100.00;100816.34;5011510;28;21217;-75
2021/08/02 03:45:05;;;;;;;8.73;6.10;;;;;;;25.88;100.00;100810.56;5011542;28;20428;-74
2021/08/02 03:47:31;;;;;;;9.20;6.37;;;;;;;25.93;100.00;100808.94;5009914;28;20435;-74
2021/08/02 03:49:57;;;;;;;8.60;7.20;;;;;;;25.95;100.00;100808.72;5010956;28;20769;-74
2021/08/02 03:52:22;;;;;;;13.10;7.40;;;;;;;25.97;100.00;100809.34;5010048;28;20162;-77
2021/08/02 03:54:48;;;;;;;11.63;6.53;;;;;;;26.00;100.00;100815.19;5011601;28;20177;-73
2021/08/02 03:57:14;;;;;;;11.67;7.00;;;;;;;26.03;100.00;100811.25;5011232;28;20245;-76
2021/08/02 03:59:41;;;;;;;17.93;6.40;;;;;;;26.03;100.00;100808.53;5011446;28;20199;-74
2021/08/02 04:02:06;;;;;;;10.03;6.77;;;;;;;26.04;100.00;100820.16;5010188;28;20409;-74
2021/08/02 04:04:32;;;;;;;12.07;6.27;;;;;;;26.10;100.00;100813.97;5011273;28;20401;-79
2021/08/02 04:06:58;;;;;;;16.03;6.53;;;;;;;26.15;100.00;100814.19;5008456;28;20166;-76
2021/08/02 04:09:23;;;;;;;9.20;6.53;;;;;;;26.19;100.00;100812.72;5010277;28;20265;-80
2021/08/02 04:11:50;;;;;;;11.73;6.10;;;;;;;26.19;100.00;100815.44;5011112;28;20299;-75
2021/08/02 04:14:16;;;;;;;8.40;5.77;;;;;;;26.22;100.00;100810.47;5011264;28;20205;-76
2021/08/02 04:16:42;;;;;;;9.67;5.60;;;;;;;26.31;100.00;100808.44;5003656;28;20780;-75
2021/08/02 04:19:08;;;;;;;11.23;5.40;;;;;;;26.32;100.00;100807.38;5009677;28;20417;-75
2021/08/02 04:21:35;;;;;;;9.63;6.47;;;;;;;26.43;100.00;100803.28;5011191;28;20409;-77
2021/08/02 04:24:01;;;;;;;7.93;5.73;;;;;;;26.41;100.00;100803.50;5009592;28;20249;-75
2021/08/02 04:26:27;;;;;;;11.70;5.97;;;;;;;26.49;100.00;100806.00;5009527;28;20418;-73
2021/08/02 04:28:56;;;;;;;9.53;6.80;;;;;;;26.57;100.00;100799.56;4991092;28;20424;-73
2021/08/02 04:31:30;;;;;;;14.63;6.10;;;;;;;26.64;100.00;100791.50;5009992;28;20241;-72
2021/08/02 04:33:56;;;;;;;8.43;5.40;;;;;;;26.66;100.00;100781.31;5010336;28;20405;-73
2021/08/02 04:36:23;;;;;;;12.93;6.10;;;;;;;26.72;100.00;100781.31;5010948;28;20773;-74
2021/08/02 04:38:49;;;;;;;11.60;6.33;;;;;;;26.80;100.00;100777.59;5008135;28;20467;-75
2021/08/02 04:41:14;;;;;;;10.47;5.17;;;;;;;26.79;100.00;100782.16;5040195;28;20421;-74
2021/08/02 04:43:40;;;;;;;12.23;5.57;;;;;;;26.91;100.00;100778.84;5011266;28;20763;-76
2021/08/02 04:46:06;;;;;;;7.17;4.93;;;;;;;26.93;100.00;100777.59;5010736;28;20166;-75
2021/08/02 04:48:32;;;;;;;10.33;6.47;;;;;;;26.92;100.00;100772.41;5010628;28;20422;-77
2021/08/02 04:50:57;;;;;;;7.53;4.87;;;;;;;27.01;100.00;100773.84;5009700;28;20190;-78
2021/08/02 04:53:23;;;;;;;7.80;5.40;;;;;;;27.08;100.00;100774.69;5008936;28;20171;-73
2021/08/02 04:55:49;;;;;;;9.60;6.03;;;;;;;27.08;100.00;100766.59;5009121;28;20178;-74
2021/08/02 04:58:14;;;;;;;7.70;5.10;;;;;;;27.19;100.00;100781.31;5009369;28;20230;-73
2021/08/02 05:00:40;;;;;;;18.93;6.60;;;;;;;27.23;100.00;100775.28;5009580;28;20236;-73
2021/08/02 05:03:05;;;;;;;9.23;5.70;;;;;;;27.22;100.00;100773.66;5011256;28;20645;-73
2021/08/02 05:05:31;;;;;;;6.73;5.37;;;;;;;27.19;100.00;100774.03;5008721;28;20189;-73
2021/08/02 05:07:56;;;;;;;6.33;4.97;;;;;;;27.20;100.00;100778.41;5009889;28;20162;-76
2021/08/02 05:10:22;;;;;;;10.60;5.23;;;;;;;27.21;100.00;100774.69;5009358;28;20245;-78
2021/08/02 05:12:51;;;;;;;9.10;5.67;;;;;;;27.28;100.00;100774.66;5011295;28;20159;-75
2021/08/02 05:15:16;;;;;;;7.50;4.60;;;;;;;27.33;100.00;100778.38;5010559;28;20178;-75
2021/08/02 05:17:41;;;;;;;8.37;6.00;;;;;;;27.28;100.00;100766.53;5009308;28;20767;-74
2021/08/02 05:20:08;;;;;;;21.27;13.10;;;;;;;27.42;100.00;100770.88;5009798;28;20173;-75
2021/08/02 05:22:33;;;;;;;14.87;9.73;;;;;;;27.49;100.00;100768.16;5008649;28;20202;-75
2021/08/02 05:24:59;;;;;;;9.40;6.10;;;;;;;27.47;100.00;100762.97;5010257;28;20427;-74
2021/08/02 05:27:25;;;;;;;7.63;5.20;;;;;;;27.48;100.00;100753.84;5009242;28;20543;-75
2021/08/02 05:29:51;;;;;;;10.70;6.40;;;;;;;27.54;100.00;100752.16;5009439;28;20231;-75
2021/08/02 05:32:16;;;;;;;6.80;5.43;;;;;;;27.54;100.00;100763.78;5009782;28;20456;-74
2021/08/02 05:34:43;;;;;;;12.30;5.90;;;;;;;27.60;100.00;100759.41;5010250;28;20171;-76
2021/08/02 05:37:09;;;;;;;9.33;5.30;;;;;;;27.63;100.00;100756.28;5003385;28;20213;-75
2021/08/02 05:39:36;;;;;;;10.13;6.17;;;;;;;27.68;100.00;100743.00;5011306;28;20417;-76
2021/08/02 05:42:02;;;;;;;13.30;6.80;;;;;;;27.65;100.00;100746.06;5013317;28;20555;-76
2021/08/02 05:44:27;;;;;;;14.13;6.03;;;;;;;27.68;100.00;100748.41;5013805;28;20429;-76
2021/08/02 05:46:59;;;;;;;17.03;5.63;;;;;;;27.72;100.00;100752.31;5014246;28;20966;-76
2021/08/02 05:49:24;;;;;;;13.10;6.07;;;;;;;27.82;100.00;100758.09;5013180;28;20249;-76
2021/08/02 05:51:51;;;;;;;11.30;6.67;;;;;;;27.86;100.00;100756.59;5013296;28;20453;-77
2021/08/02 05:54:17;;;;;;;12.07;6.40;;;;;;;27.90;100.00;100755.16;5013038;28;20255;-76
2021/08/02 05:56:42;;;;;;;14.87;8.17;;;;;;;27.92;100.00;100763.03;5013222;28;20409;-79
2021/08/02 05:59:08;;;;;;;18.43;7.70;;;;;;;27.99;100.00;100763.81;5013147;28;20197;-75
2021/08/02 06:01:33;;;;;;;8.07;6.80;;;;;;;28.05;100.00;100762.97;4997478;28;20178;-75
2021/08/02 06:03:59;;;;;;;9.37;5.90;;;;;;;28.09;100.00;100766.03;5013394;28;20694;-75
2021/08/02 06:06:24;;;;;;;9.53;6.70;;;;;;;28.22;100.00;100765.16;5013530;28;20170;-75
2021/08/02 06:08:50;;;;;;;7.43;5.43;;;;;;;28.31;100.00;100766.56;5013288;28;20253;-75
2021/08/02 06:11:15;;;;;;;10.30;6.60;;;;;;;28.33;100.00;100768.00;5012341;28;20217;-75
2021/08/02 06:13:41;;;;;;;9.73;7.50;;;;;;;28.34;100.00;100755.31;5013126;28;20254;-74
2021/08/02 06:16:06;;;;;;;10.77;6.37;;;;;;;28.32;100.00;100758.22;5010983;28;20181;-77
2021/08/02 06:18:32;;;;;;;11.23;7.60;;;;;;;28.40;100.00;100755.25;5013097;28;20594;-75
2021/08/02 06:20:57;;;;;;;8.77;6.03;;;;;;;28.43;100.00;100754.00;5012388;28;20167;-76
2021/08/02 06:23:23;;;;;;;14.00;6.37;;;;;;;28.55;100.00;100754.09;5012654;28;20201;-75
2021/08/02 06:25:48;;;;;;;10.17;5.57;;;;;;;28.60;100.00;100743.47;5027005;28;20250;-76
2021/08/02 06:28:14;;;;;;;9.70;5.83;;;;;;;28.61;100.00;100742.41;5012555;28;20171;-76
2021/08/02 06:30:39;;;;;;;11.70;6.40;;;;;;;28.72;100.00;100733.59;5012843;28;20194;-75
2021/08/02 06:33:05;;;;;;;12.87;5.93;;;;;;;28.86;100.00;100736.97;5012520;28;20582;-76
2021/08/02 06:35:30;;;;;;;11.10;6.40;;;;;;;28.95;100.00;100731.13;5012983;28;20166;-75
2021/08/02 06:37:56;;;;;;;11.93;6.07;;;;;;;29.02;100.00;100734.56;5012661;28;20212;-76
2021/08/02 06:40:22;;;;;;;10.70;6.30;;;;;;;29.02;100.00;100739.16;5011774;28;20189;-76
2021/08/02 06:42:47;;;;;;;8.23;6.20;;;;;;;29.07;100.00;100733.88;5012043;28;20495;-77
2021/08/02 06:45:13;;;;;;;9.07;5.90;;;;;;;29.14;100.00;100731.13;5012505;28;20213;-78
2021/08/02 06:47:40;;;;;;;10.50;6.40;;;;;;;29.24;100.00;100731.41;5011371;28;20471;-78
2021/08/02 06:50:06;;;;;;;11.00;6.40;;;;;;;29.21;100.00;100734.56;5011103;28;20420;-79
2021/08/02 06:52:33;;;;;;;11.17;7.47;;;;;;;29.16;100.00;100734.41;5012353;28;20482;-76
2021/08/02 06:54:58;;;;;;;13.87;7.33;;;;;;;29.27;100.00;100739.09;5012867;28;20436;-76
2021/08/02 06:57:23;;;;;;;14.60;8.20;;;;;;;29.40;100.00;100736.25;5012967;28;20409;-78
2021/08/02 06:59:53;;;;;;;9.57;6.57;;;;;;;29.46;100.00;100732.59;5011565;28;20190;-75
2021/08/02 07:02:19;;;;;;;12.00;7.50;;;;;;;29.52;100.00;100730.91;5010479;28;20190;-76
2021/08/02 07:04:44;;;;;;;13.50;6.73;;;;;;;29.55;100.00;100728.59;5012386;28;20413;-77
2021/08/02 07:07:10;;;;;;;11.60;7.63;;;;;;;29.68;100.00;100729.44;5011637;28;20178;-80
2021/08/02 07:09:36;;;;;;;19.53;8.90;;;;;;;29.68;100.00;100719.44;5011963;28;20198;-74
2021/08/02 07:12:02;;;;;;;16.00;7.47;;;;;;;29.81;100.00;100721.16;5014973;28;20190;-72
2021/08/02 07:14:27;;;;;;;15.63;7.60;;;;;;;29.80;100.00;100719.50;5018112;28;20448;-75
2021/08/02 07:16:53;;;;;;;11.30;7.03;;;;;;;29.90;100.00;100706.22;5011969;28;20198;-77
2021/08/02 07:19:18;;;;;;;13.20;8.77;;;;;;;29.96;100.00;100710.72;5011616;28;20167;-75
2021/08/02 07:21:44;;;;;;;13.13;7.00;;;;;;;30.07;100.00;100709.09;5011746;28;20682;-78
2021/08/02 07:24:09;;;;;;;10.60;6.70;;;;;;;30.23;100.00;100719.31;5013100;28;20182;-75
2021/08/02 07:26:35;;;;;;;13.63;7.47;;;;;;;30.27;100.00;100716.97;5011449;28;20655;-75
2021/08/02 07:29:02;;;;;;;14.97;6.80;;;;;;;30.30;100.00;100716.47;5012187;28;20178;-75
2021/08/02 07:31:28;;;;;;;18.23;9.87;;;;;;;30.25;100.00;100714.47;5012035;28;20186;-75
2021/08/02 07:33:54;;;;;;;11.20;7.70;;;;;;;30.35;100.00;100722.03;5011449;28;20420;-75
2021/08/02 07:36:21;;;;;;;15.17;8.90;;;;;;;30.32;100.00;100714.38;5013215;28;20504;-75
2021/08/02 07:38:47;;;;;;;11.60;6.67;;;;;;;30.38;100.00;100708.03;5011280;28;20492;-75
2021/08/02 07:41:14;;;;;;;10.37;7.20;;;;;;;30.42;100.00;100717.34;5010258;28;20504;-75
2021/08/02 07:43:39;;;;;;;21.97;7.37;;;;;;;30.49;100.00;100712.63;5007151;28;20223;-76
2021/08/02 07:46:05;;;;;;;12.10;8.23;;;;;;;30.49;100.00;100718.06;5011323;28;20496;-77
2021/08/02 07:48:31;;;;;;;13.10;6.80;;;;;;;30.48;100.00;100721.00;5010549;28;20174;-76
2021/08/02 07:50:56;;;;;;;10.17;6.90;;;;;;;30.50;100.00;100725.13;5010621;28;20269;-77
2021/08/02 07:53:22;;;;;;;15.47;10.77;;;;;;;30.52;100.00;100728.41;5011207;28;20167;-75
2021/08/02 07:55:48;;;;;;;15.57;9.77;;;;;;;30.56;100.00;100723.38;5010992;28;20232;-77
2021/08/02 07:58:14;;;;;;;10.80;7.53;;;;;;;30.61;100.00;100726.22;5010769;28;20186;-75
2021/08/02 08:00:40;;;;;;;10.00;7.13;;;;;;;30.69;100.00;100728.59;5010457;28;20178;-77
2021/08/02 08:03:05;;;;;;;12.73;7.60;;;;;;;30.65;100.00;100730.91;5010718;28;20421;-77
2021/08/02 08:05:31;;;;;;;11.57;7.03;;;;;;;30.73;100.00;100729.78;5010914;28;20185;-76
2021/08/02 08:07:56;;;;;;;13.93;7.43;;;;;;;30.71;100.00;100737.34;5010451;28;20257;-76
2021/08/02 08:10:24;;;;;;;9.00;7.27;;;;;;;30.68;100.00;100732.34;5009926;28;20253;-76
2021/08/02 08:12:51;;;;;;;12.37;7.53;;;;;;;30.77;100.00;100722.00;5010034;28;20549;-78
2021/08/02 08:15:19;;;;;;;17.53;7.73;;;;;;;30.92;100.00;100720.47;5014956;28;20425;-77
2021/08/02 08:17:45;;;;;;;12.03;7.77;;;;;;;30.97;100.00;100722.44;5010431;28;20513;-76
2021/08/02 08:20:14;;;;;;;13.27;8.97;;;;;;;31.10;100.00;100716.75;5009832;28;20417;-77
2021/08/02 08:22:40;;;;;;;13.40;8.03;;;;;;;31.13;100.00;100713.56;5008800;28;20223;-76
2021/08/02 08:25:07;;;;;;;10.20;7.33;;;;;;;31.22;100.00;100708.66;5010081;28;20421;-75
2021/08/02 08:27:33;;;;;;;12.63;8.33;;;;;;;31.27;100.00;100716.06;5009962;28;20416;-74
2021/08/02 08:29:59;;;;;;;12.73;7.90;;;;;;;31.27;100.00;100707.91;5010564;28;20437;-75
2021/08/02 08:32:24;;;;;;;15.10;8.80;;;;;;;31.26;100.00;100711.69;5009388;28;20453;-73
2021/08/02 08:34:50;;;;;;;11.27;7.90;;;;;;;31.16;100.00;100710.38;5010408;28;20209;-74
2021/08/02 08:37:16;;;;;;;10.70;7.20;;;;;;;31.18;100.00;100708.25;5009852;28;20214;-74
2021/08/02 08:39:41;;;;;;;11.10;7.43;;;;;;;31.24;100.00;100698.34;5007813;28;20433;-75
2021/08/02 08:42:07;;;;;;;13.60;9.03;;;;;;;31.18;100.00;100704.72;5009646;28;20205;-76
2021/08/02 08:44:34;;;;;;;11.27;7.47;;;;;;;31.22;100.00;100700.50;5010361;28;20285;-77
2021/08/02 08:47:00;;;;;;;12.30;7.33;;;;;;;31.34;100.00;100698.56;5010414;28;20200;-78
2021/08/02 08:49:25;;;;;;;15.47;7.50;;;;;;;31.32;100.00;100695.25;5009774;28;20453;-79
2021/08/02 08:51:53;;;;;;;11.37;6.97;;;;;;;31.28;100.00;100691.38;5009982;28;20212;-75
2021/08/02 08:54:18;;;;;;;11.90;7.57;;;;;;;31.31;100.00;100692.78;5010532;28;20182;-77
2021/08/02 08:56:44;;;;;;;10.03;6.97;;;;;;;31.32;100.00;100684.41;5009680;28;20425;-76
2021/08/02 08:59:13;;;;;;;11.30;8.07;;;;;;;31.38;100.00;100688.06;5008839;28;20643;-78
2021/08/02 09:01:40;;;;;;;13.20;7.30;;;;;;;31.46;100.00;100674.91;5005720;28;20190;-77
2021/08/02 09:04:05;;;;;;;12.63;6.93;;;;;;;31.64;100.00;100675.78;5010132;28;20805;-75
2021/08/02 09:06:32;;;;;;;12.67;8.00;;;;;;;31.67;100.00;100673.41;5010890;28;20409;-76
2021/08/02 09:08:58;;;;;;;11.83;6.27;;;;;;;31.65;100.00;100672.81;5009664;28;20257;-76
2021/08/02 09:11:28;;;;;;;12.30;6.50;;;;;;;31.68;100.00;100672.34;5009363;28;20538;-77
2021/08/02 09:13:54;;;;;;;10.83;6.87;;;;;;;31.68;100.00;100677.78;5010149;28;20261;-77
2021/08/02 09:16:25;;;;;;;11.93;6.60;;;;;;;31.72;100.00;100676.19;5013399;28;20405;-77
2021/08/02 09:19:07;;;;;;;12.47;7.07;;;;;;;31.73;100.00;100672.41;5012327;28;20889;-76
2021/08/02 09:21:59;;;;;;;17.57;7.33;;;;;;;31.44;100.00;100681.66;5013743;28;20401;-74
2021/08/02 09:24:29;;;;;;;9.70;7.20;;;;;;;31.54;100.00;100670.97;5009975;28;20444;-76
2021/08/02 09:26:54;;;;;;;12.73;7.60;;;;;;;31.58;100.00;100674.03;5009539;28;20424;-74
2021/08/02 09:29:34;;;;;;;11.30;6.67;;;;;;;31.73;100.00;100668.88;5013598;28;20409;-74
2021/08/02 09:32:01;;;;;;;9.77;6.70;;;;;;;31.81;100.00;100664.97;5013683;28;20217;-73
2021/08/02 09:34:26;;;;;;;9.60;7.10;;;;;;;31.89;100.00;100670.00;5013032;28;20417;-74
2021/08/02 09:36:57;;;;;;;12.23;6.93;;;;;;;31.96;100.00;100668.78;5013801;28;20427;-75
2021/08/02 09:39:30;;;;;;;11.73;6.47;;;;;;;32.04;100.00;100664.81;5045077;28;20429;-74
2021/08/02 09:42:10;;;;;;;12.83;6.03;;;;;;;32.12;100.00;100655.44;5012598;28;20909;-74
2021/08/02 09:44:38;;;;;;;10.73;7.53;;;;;;;32.21;100.00;100657.50;5006884;28;20999;-78
2021/08/02 09:47:07;;;;;;;15.60;6.27;;;;;;;32.19;100.00;100662.34;5013237;28;20508;-75
2021/08/02 09:49:53;;;;;;;10.47;6.80;;;;;;;32.24;100.00;100664.34;5012214;28;21086;-76
2021/08/02 09:52:18;;;;;;;10.00;6.50;;;;;;;32.23;100.00;100654.53;5003108;28;20483;-74
2021/08/02 09:54:44;;;;;;;9.00;6.17;;;;;;;32.34;100.00;100664.53;5011819;28;20421;-79
2021/08/02 09:57:11;;;;;;;12.03;7.23;;;;;;;32.48;100.00;100659.56;5012270;28;20520;-76
2021/08/02 09:59:42;;;;;;;9.90;7.40;;;;;;;32.54;100.00;100653.13;5011213;28;20205;-75
2021/08/02 10:02:08;;;;;;;9.57;7.03;;;;;;;32.64;100.00;100655.16;5010045;28;20759;-77
2021/08/02 10:04:37;;;;;;;10.00;7.00;;;;;;;32.62;100.00;100660.06;5011557;28;20522;-73
2021/08/02 10:07:09;;;;;;;11.53;6.90;;;;;;;32.63;100.00;100656.25;5012331;28;20782;-76
2021/08/02 10:09:40;;;;;;;13.33;7.10;;;;;;;32.66;100.00;100653.88;5013368;28;20825;-75
2021/08/02 10:12:05;;;;;;;17.00;6.17;;;;;;;32.77;100.00;100652.09;5012750;28;20506;-74
2021/08/02 10:14:33;;;;;;;15.03;6.40;;;;;;;32.81;100.00;100653.25;5012440;28;20429;-75
2021/08/02 10:17:07;;;;;;;10.00;6.30;;;;;;;32.94;100.00;100652.06;5012432;28;20212;-77
2021/08/02 10:19:43;;;;;;;58.97;52.93;;;;;;;33.06;100.00;100645.44;5012926;28;20405;-79
2021/08/02 10:22:10;;;;;;;15.40;11.50;;;;;;;33.14;100.00;100641.44;5012953;28;20451;-74
2021/08/02 10:24:50;;;;;;;18.53;12.83;;;;;;;33.23;100.00;100633.63;5012155;28;20409;-74
2021/08/02 10:27:30;;;;;;;10.80;7.40;;;;;;;33.31;100.00;100636.72;5011690;28;20421;-74
2021/08/02 10:29:57;;;;;;;11.77;9.10;;;;;;;33.77;100.00;100628.22;5012405;28;20410;-78
2021/08/02 10:32:25;;;;;;;15.47;7.03;;;;;;;34.19;100.00;100629.16;5013078;28;20457;-78
2021/08/02 10:34:53;;;;;;;9.90;6.47;;;;;;;34.39;100.00;100630.38;5012677;28;20409;-75
2021/08/02 10:37:37;;;;;;;11.23;8.40;;;;;;;34.54;100.00;100624.19;5012269;28;20507;-74
2021/08/02 10:40:11;;;;;;;8.93;6.03;;;;;;;34.70;100.00;100623.22;5012115;28;20507;-77
2021/08/02 10:42:47;;;;;;;11.57;7.07;;;;;;;34.53;100.00;100622.56;5012083;28;20776;-74
2021/08/02 10:45:13;;;;;;;9.60;7.70;;;;;;;34.48;100.00;100628.84;5012320;28;20930;-74
2021/08/02 10:47:41;;;;;;;9.63;6.40;;;;;;;34.13;100.00;100632.91;5013444;28;20412;-78
2021/08/02 10:50:07;;;;;;;12.43;6.90;;;;;;;33.96;100.00;100640.44;5011511;28;20171;-78
2021/08/02 10:52:33;;;;;;;11.83;6.57;;;;;;;33.71;100.00;100642.91;5011607;28;20554;-74
2021/08/02 10:54:59;;;;;;;15.03;6.40;;;;;;;33.53;100.00;100644.06;5011285;28;20872;-76
2021/08/02 10:57:25;;;;;;;8.70;6.33;;;;;;;33.36;100.00;100647.69;5008381;28;20672;-79
2021/08/02 10:59:50;;;;;;;21.07;7.30;;;;;;;33.08;100.00;100647.91;5006743;28;20194;-80
2021/08/02 11:02:16;;;;;;;11.80;5.90;;;;;;;32.98;100.00;100648.59;5012912;28;20497;-78
2021/08/02 11:04:42;;;;;;;13.67;6.70;;;;;;;32.93;100.00;100647.72;5012493;28;20616;-74
2021/08/02 11:07:08;;;;;;;11.53;5.93;;;;;;;32.92;100.00;100646.06;5011311;28;20170;-78
2021/08/02 11:09:38;;;;;;;8.47;5.63;;;;;;;33.06;100.00;100650.06;5011278;28;20481;-72
2021/08/02 11:12:14;;;;;;;9.23;5.87;;;;;;;33.28;100.00;100641.88;5011392;28;20534;-73
2021/08/02 11:14:56;;;;;;;13.00;6.23;;;;;;;33.12;100.00;100647.16;5009516;28;20878;-73
2021/08/02 11:17:24;;;;;;;11.60;5.77;;;;;;;33.19;100.00;100646.97;5011751;28;20426;-79